Time;durP1;ratioP1;P1;durP2;ratioP2;P2;SDS_P1;SDS_P2;PMS_P1;PMS_P2;Temp;Humidity;BMP_temperature;BMP_pressure;BME280_temperature;BME280_humidity;BME280_pressure;Samples;Min_cycle;Max_cycle;Signal;HPM_P1;HPM_P2
2023/04/06 00:02:02;;;;;;;16.70;11.23;;;;;;;;;;5018261;28;20060;-53
2023/04/06 00:04:28;;;;;;;17.40;10.98;;;;;;;;;;5015234;28;20951;-53
2023/04/06 00:06:53;;;;;;;23.63;12.00;;;;;;;;;;5000433;28;20053;-55
2023/04/06 00:09:18;;;;;;;22.23;12.60;;;;;;;;;;5002210;28;20065;-56
2023/04/06 00:11:44;;;;;;;18.88;11.55;;;;;;;;;;5002139;28;20045;-56
2023/04/06 00:14:09;;;;;;;16.67;10.70;;;;;;;;;;5002834;28;20467;-51
2023/04/06 00:16:35;;;;;;;16.27;10.88;;;;;;;;;;5013094;28;20041;-51
2023/04/06 00:19:00;;;;;;;17.98;10.38;;;;;;;;;;5018898;28;20068;-53
2023/04/06 00:21:25;;;;;;;16.23;10.52;;;;;;;;;;5017471;28;20037;-52
2023/04/06 00:23:51;;;;;;;15.50;10.35;;;;;;;;;;5014666;28;20053;-51
2023/04/06 00:26:16;;;;;;;15.68;10.15;;;;;;;;;;5017517;28;21031;-55
2023/04/06 00:28:44;;;;;;;17.58;10.25;;;;;;;;;;5000010;28;20026;-57
2023/04/06 00:31:10;;;;;;;13.98;9.95;;;;;;;;;;5016021;28;20033;-55
2023/04/06 00:33:35;;;;;;;15.88;10.40;;;;;;;;;;5003091;28;20033;-54
2023/04/06 00:36:00;;;;;;;17.25;10.52;;;;;;;;;;5020460;28;20040;-57
2023/04/06 00:38:26;;;;;;;16.02;10.70;;;;;;;;;;5001867;28;20440;-57
2023/04/06 00:40:51;;;;;;;16.85;9.82;;;;;;;;;;4999435;28;20037;-57
2023/04/06 00:43:17;;;;;;;15.20;9.68;;;;;;;;;;5003734;28;20549;-51
2023/04/06 00:45:43;;;;;;;20.10;11.37;;;;;;;;;;5000942;28;20030;-55
2023/04/06 00:48:10;;;;;;;15.43;9.63;;;;;;;;;;5017491;28;20030;-59
2023/04/06 00:50:35;;;;;;;17.40;10.45;;;;;;;;;;5015855;28;20104;-55
2023/04/06 00:53:00;;;;;;;13.88;9.38;;;;;;;;;;5005538;28;20060;-55
2023/04/06 00:55:27;;;;;;;15.98;10.00;;;;;;;;;;5007848;28;20032;-54
2023/04/06 00:57:53;;;;;;;15.05;9.18;;;;;;;;;;5005569;28;20033;-55
2023/04/06 01:00:18;;;;;;;19.90;10.98;;;;;;;;;;5018020;28;20063;-54
2023/04/06 01:02:46;;;;;;;22.85;11.45;;;;;;;;;;5006520;28;20910;-52
2023/04/06 01:05:13;;;;;;;25.00;11.32;;;;;;;;;;5017692;28;20037;-54
2023/04/06 01:07:47;;;;;;;20.42;10.43;;;;;;;;;;5003665;28;20054;-53
2023/04/06 01:10:28;;;;;;;19.50;10.63;;;;;;;;;;5002939;28;20056;-59
2023/04/06 01:13:16;;;;;;;18.73;10.30;;;;;;;;;;5008779;28;20046;-54
2023/04/06 01:16:07;;;;;;;18.15;10.00;;;;;;;;;;5014847;28;20041;-53
2023/04/06 01:18:48;;;;;;;19.52;9.77;;;;;;;;;;5006831;28;20037;-54
2023/04/06 01:21:25;;;;;;;16.27;8.90;;;;;;;;;;4993521;28;20593;-55
2023/04/06 01:24:16;;;;;;;17.83;10.35;;;;;;;;;;4977222;28;20037;-57
2023/04/06 01:27:01;;;;;;;16.17;10.43;;;;;;;;;;5018559;28;20116;-54
2023/04/06 01:29:33;;;;;;;15.88;9.57;;;;;;;;;;5003387;28;20144;-57
2023/04/06 01:32:01;;;;;;;19.50;10.43;;;;;;;;;;5006304;28;20061;-57
2023/04/06 01:34:28;;;;;;;15.18;8.98;;;;;;;;;;5000480;28;20472;-55
2023/04/06 01:36:57;;;;;;;14.25;9.07;;;;;;;;;;5015276;28;20126;-52
2023/04/06 01:39:26;;;;;;;16.05;9.02;;;;;;;;;;5001265;28;20079;-54
2023/04/06 01:41:51;;;;;;;13.18;8.82;;;;;;;;;;5004545;28;20045;-53
2023/04/06 01:44:20;;;;;;;16.55;9.70;;;;;;;;;;4996291;28;20486;-56
2023/04/06 01:46:50;;;;;;;16.85;9.80;;;;;;;;;;5002735;28;20031;-53
2023/04/06 01:49:18;;;;;;;17.60;10.70;;;;;;;;;;5002865;28;20084;-57
2023/04/06 01:51:48;;;;;;;17.52;10.95;;;;;;;;;;5015517;28;20525;-51
2023/04/06 01:54:13;;;;;;;16.02;10.30;;;;;;;;;;5001100;28;20065;-54
2023/04/06 01:57:05;;;;;;;18.00;10.82;;;;;;;;;;5014123;28;20037;-52
2023/04/06 01:59:40;;;;;;;15.90;10.38;;;;;;;;;;4988796;28;20381;-51
2023/04/06 02:02:12;;;;;;;17.83;10.50;;;;;;;;;;5006992;28;20060;-54
2023/04/06 02:04:39;;;;;;;;;;;;;;;;;;5001398;28;20098;-52
2023/04/06 02:07:09;;;;;;;14.27;8.85;;;;;;;;;;4997647;28;19913;-53
2023/04/06 02:09:35;;;;;;;14.73;9.48;;;;;;;;;;5001948;28;20087;-57
2023/04/06 02:12:02;;;;;;;16.38;9.70;;;;;;;;;;5005312;28;20573;-55
2023/04/06 02:14:29;;;;;;;13.75;9.50;;;;;;;;;;5014684;28;20041;-53
2023/04/06 02:16:57;;;;;;;17.75;9.70;;;;;;;;;;5001123;28;20030;-53
2023/04/06 02:19:23;;;;;;;16.13;9.70;;;;;;;;;;5002232;28;20087;-56
2023/04/06 02:21:48;;;;;;;18.13;10.90;;;;;;;;;;5002634;28;20044;-54
2023/04/06 02:24:14;;;;;;;18.65;11.20;;;;;;;;;;5019002;28;20026;-52
2023/04/06 02:26:40;;;;;;;19.92;10.95;;;;;;;;;;5015543;28;20022;-54
2023/04/06 02:29:05;;;;;;;20.42;13.30;;;;;;;;;;4998550;28;20028;-54
2023/04/06 02:31:32;;;;;;;20.42;11.25;;;;;;;;;;5015492;28;20048;-53
2023/04/06 02:33:57;;;;;;;22.50;12.20;;;;;;;;;;5001295;28;20038;-53
2023/04/06 02:36:23;;;;;;;15.10;10.32;;;;;;;;;;5001101;28;20030;-52
2023/04/06 02:38:48;;;;;;;17.58;10.57;;;;;;;;;;5001927;28;20490;-56
2023/04/06 02:41:14;;;;;;;23.27;12.45;;;;;;;;;;5004032;28;20036;-56
2023/04/06 02:43:39;;;;;;;20.00;11.73;;;;;;;;;;4992522;28;20052;-53
2023/04/06 02:46:13;;;;;;;21.58;12.23;;;;;;;;;;5004301;28;20025;-56
2023/04/06 02:48:38;;;;;;;22.70;11.32;;;;;;;;;;5000396;28;20052;-57
2023/04/06 02:51:04;;;;;;;20.52;12.05;;;;;;;;;;5002864;28;20048;-53
2023/04/06 02:53:30;;;;;;;17.33;11.27;;;;;;;;;;5002971;28;20033;-55
2023/04/06 02:55:55;;;;;;;18.75;11.00;;;;;;;;;;5002827;28;20037;-53
2023/04/06 02:58:24;;;;;;;18.17;11.23;;;;;;;;;;5006034;28;20121;-55
2023/04/06 03:00:53;;;;;;;22.73;11.73;;;;;;;;;;4999847;28;20757;-57
2023/04/06 03:03:18;;;;;;;17.83;11.48;;;;;;;;;;5001147;28;20030;-53
2023/04/06 03:05:44;;;;;;;16.87;11.07;;;;;;;;;;5003880;28;20121;-52
2023/04/06 03:08:10;;;;;;;20.63;12.23;;;;;;;;;;4999043;28;20291;-52
2023/04/06 03:10:42;;;;;;;18.83;11.13;;;;;;;;;;5002165;28;20091;-51
2023/04/06 03:13:07;;;;;;;20.33;10.88;;;;;;;;;;4987573;28;20085;-57
2023/04/06 03:15:53;;;;;;;22.15;11.30;;;;;;;;;;5015875;28;20038;-52
2023/04/06 03:18:24;;;;;;;18.30;11.20;;;;;;;;;;4985629;28;20069;-52
2023/04/06 03:20:51;;;;;;;19.67;12.30;;;;;;;;;;5001942;28;20052;-55
2023/04/06 03:23:20;;;;;;;16.80;10.52;;;;;;;;;;4998668;28;20381;-53
2023/04/06 03:25:46;;;;;;;18.67;11.25;;;;;;;;;;4987479;28;20030;-56
2023/04/06 03:28:18;;;;;;;18.20;10.60;;;;;;;;;;5002651;28;20032;-54
2023/04/06 03:30:51;;;;;;;19.55;11.30;;;;;;;;;;5002617;28;21985;-55
2023/04/06 03:33:23;;;;;;;16.05;10.65;;;;;;;;;;4991901;28;20041;-54
2023/04/06 03:35:53;;;;;;;21.50;11.85;;;;;;;;;;5002193;28;20038;-59
2023/04/06 03:38:19;;;;;;;19.02;11.38;;;;;;;;;;5003438;28;20029;-54
2023/04/06 03:40:45;;;;;;;20.33;12.20;;;;;;;;;;5013913;28;20661;-52
2023/04/06 03:43:10;;;;;;;21.73;11.40;;;;;;;;;;5017782;28;20045;-54
2023/04/06 03:45:37;;;;;;;22.98;13.05;;;;;;;;;;4996925;28;20084;-53
2023/04/06 03:48:03;;;;;;;22.15;12.10;;;;;;;;;;4997333;28;20450;-57
2023/04/06 03:50:30;;;;;;;17.33;11.48;;;;;;;;;;5002043;28;20058;-56
2023/04/06 03:52:56;;;;;;;16.38;10.77;;;;;;;;;;5002015;28;20030;-53
2023/04/06 03:55:21;;;;;;;17.65;10.80;;;;;;;;;;4998052;28;20435;-53
2023/04/06 03:57:46;;;;;;;20.23;11.07;;;;;;;;;;5015478;28;20033;-56
2023/04/06 04:00:12;;;;;;;18.80;11.88;;;;;;;;;;4998426;28;20041;-51
2023/04/06 04:02:40;;;;;;;23.48;11.75;;;;;;;;;;4989197;28;20120;-54
2023/04/06 04:05:05;;;;;;;18.30;11.30;;;;;;;;;;4999220;28;20117;-52
2023/04/06 04:07:31;;;;;;;17.48;10.95;;;;;;;;;;5016049;28;20109;-55
2023/04/06 04:09:56;;;;;;;17.98;10.88;;;;;;;;;;5003370;28;20942;-55
2023/04/06 04:12:22;;;;;;;23.00;11.02;;;;;;;;;;5013781;28;20431;-51
2023/04/06 04:14:47;;;;;;;16.35;10.23;;;;;;;;;;5012206;28;20034;-55
2023/04/06 04:17:12;;;;;;;18.13;12.02;;;;;;;;;;5015395;28;20505;-58
2023/04/06 04:19:38;;;;;;;19.88;11.15;;;;;;;;;;5013028;28;20458;-53
2023/04/06 04:22:04;;;;;;;23.15;11.98;;;;;;;;;;4996731;28;20646;-55
2023/04/06 04:24:33;;;;;;;29.05;13.18;;;;;;;;;;5003478;28;20030;-55
2023/04/06 04:27:00;;;;;;;22.85;13.07;;;;;;;;;;5000621;28;20083;-54
2023/04/06 04:29:27;;;;;;;24.05;12.63;;;;;;;;;;4997222;28;20034;-53
2023/04/06 04:31:53;;;;;;;26.20;13.63;;;;;;;;;;4999199;28;20046;-59
2023/04/06 04:34:24;;;;;;;22.15;12.65;;;;;;;;;;5017301;28;20041;-52
2023/04/06 04:36:50;;;;;;;25.30;13.18;;;;;;;;;;4998875;28;20121;-59
2023/04/06 04:39:23;;;;;;;23.42;13.63;;;;;;;;;;5007033;28;20033;-52
2023/04/06 04:41:56;;;;;;;22.35;12.30;;;;;;;;;;5006063;28;20033;-53
2023/04/06 04:44:21;;;;;;;23.05;13.27;;;;;;;;;;5018416;28;20037;-57
2023/04/06 04:46:48;;;;;;;23.10;12.45;;;;;;;;;;5002536;28;20091;-58
2023/04/06 04:49:16;;;;;;;23.60;12.30;;;;;;;;;;4989896;28;20049;-55
2023/04/06 04:51:42;;;;;;;20.83;11.85;;;;;;;;;;4989842;28;20065;-57
2023/04/06 04:54:11;;;;;;;20.77;12.30;;;;;;;;;;5003469;28;20211;-52
2023/04/06 04:56:36;;;;;;;23.52;12.25;;;;;;;;;;5002754;28;20120;-54
2023/04/06 04:59:25;;;;;;;19.27;11.23;;;;;;;;;;5008454;28;20029;-54
2023/04/06 05:01:59;;;;;;;22.60;11.65;;;;;;;;;;5002542;28;20064;-54
2023/04/06 05:04:34;;;;;;;23.95;11.93;;;;;;;;;;4996939;28;20071;-56
2023/04/06 05:07:06;;;;;;;20.25;12.57;;;;;;;;;;5000402;28;20034;-59
2023/04/06 05:09:32;;;;;;;20.30;12.00;;;;;;;;;;4998903;28;20034;-60
2023/04/06 05:11:59;;;;;;;21.25;12.13;;;;;;;;;;5002706;28;20044;-59
2023/04/06 05:14:25;;;;;;;20.57;12.23;;;;;;;;;;4996394;28;20045;-56
2023/04/06 05:16:51;;;;;;;20.75;11.70;;;;;;;;;;5002935;28;20030;-54
2023/04/06 05:19:16;;;;;;;24.20;11.98;;;;;;;;;;5000936;28;20030;-59
2023/04/06 05:21:44;;;;;;;21.17;11.75;;;;;;;;;;5002629;28;20457;-56
2023/04/06 05:24:10;;;;;;;21.25;11.80;;;;;;;;;;5002288;28;20700;-53
2023/04/06 05:26:36;;;;;;;19.93;13.03;;;;;;;;;;4997693;28;20045;-56
2023/04/06 05:29:07;;;;;;;23.35;13.20;;;;;;;;;;4981301;28;20049;-57
2023/04/06 05:31:35;;;;;;;69.95;34.53;;;;;;;;;;5000902;28;20045;-57
2023/04/06 05:34:00;;;;;;;57.42;25.63;;;;;;;;;;5005246;28;20033;-53
2023/04/06 05:36:31;;;;;;;46.60;20.95;;;;;;;;;;5001560;28;20716;-58
2023/04/06 05:38:58;;;;;;;41.33;19.88;;;;;;;;;;5007461;28;20087;-60
2023/04/06 05:41:43;;;;;;;36.50;16.83;;;;;;;;;;5003048;28;20049;-57
2023/04/06 05:44:10;;;;;;;25.52;14.20;;;;;;;;;;4996225;28;20191;-57
2023/04/06 05:46:36;;;;;;;25.27;14.77;;;;;;;;;;4998874;28;20473;-57
2023/04/06 05:49:03;;;;;;;26.88;15.60;;;;;;;;;;5016024;28;20025;-60
2023/04/06 05:51:31;;;;;;;30.48;15.65;;;;;;;;;;5001247;28;20046;-56
2023/04/06 05:53:57;;;;;;;30.27;14.85;;;;;;;;;;5003103;28;20041;-55
2023/04/06 05:56:23;;;;;;;26.70;15.73;;;;;;;;;;4996417;28;20053;-57
2023/04/06 05:58:49;;;;;;;28.35;15.30;;;;;;;;;;5001900;28;20037;-58
2023/04/06 06:01:20;;;;;;;28.35;16.85;;;;;;;;;;4995921;28;20120;-57
2023/04/06 06:03:46;;;;;;;28.48;18.23;;;;;;;;;;5000244;28;20033;-57
2023/04/06 06:06:13;;;;;;;31.42;17.05;;;;;;;;;;5001272;28;20055;-57
2023/04/06 06:09:04;;;;;;;33.22;16.70;;;;;;;;;;5016914;28;20432;-57
2023/04/06 06:11:33;;;;;;;28.65;15.40;;;;;;;;;;4997737;28;20070;-55
2023/04/06 06:13:59;;;;;;;26.17;15.70;;;;;;;;;;5000382;28;20034;-54
2023/04/06 06:16:25;;;;;;;26.65;16.65;;;;;;;;;;5006327;28;20045;-54
2023/04/06 06:18:50;;;;;;;26.50;17.48;;;;;;;;;;4991725;28;20030;-54
2023/04/06 06:21:16;;;;;;;27.60;16.90;;;;;;;;;;5001300;28;20029;-56
2023/04/06 06:23:42;;;;;;;32.80;18.73;;;;;;;;;;4993539;28;20036;-52
2023/04/06 06:26:11;;;;;;;30.58;17.77;;;;;;;;;;5005153;28;20025;-53
2023/04/06 06:28:36;;;;;;;37.38;18.83;;;;;;;;;;5001938;28;20842;-51
2023/04/06 06:31:02;;;;;;;37.60;20.65;;;;;;;;;;5000291;28;20065;-56
2023/04/06 06:33:28;;;;;;;33.33;20.00;;;;;;;;;;4999792;28;20487;-54
2023/04/06 06:35:55;;;;;;;36.30;19.43;;;;;;;;;;5000433;28;20030;-54
2023/04/06 06:38:20;;;;;;;36.10;19.08;;;;;;;;;;5005692;28;20083;-57
2023/04/06 06:40:46;;;;;;;38.30;20.08;;;;;;;;;;5011952;28;20057;-55
2023/04/06 06:43:12;;;;;;;32.75;19.60;;;;;;;;;;4985923;28;20706;-61
2023/04/06 06:45:53;;;;;;;31.27;17.75;;;;;;;;;;5011694;28;20119;-55
2023/04/06 06:48:18;;;;;;;31.67;17.17;;;;;;;;;;5000187;28;20076;-58
2023/04/06 06:50:44;;;;;;;29.58;17.60;;;;;;;;;;4986754;28;20866;-57
2023/04/06 06:53:11;;;;;;;34.35;19.60;;;;;;;;;;5000407;28;20379;-59
2023/04/06 06:55:37;;;;;;;38.17;19.42;;;;;;;;;;4999806;28;20049;-56
2023/04/06 06:58:02;;;;;;;32.92;17.73;;;;;;;;;;4997568;28;20890;-53
2023/04/06 07:00:27;;;;;;;30.88;17.35;;;;;;;;;;5013882;28;20037;-57
2023/04/06 07:02:53;;;;;;;31.20;17.40;;;;;;;;;;5000025;28;20045;-54
2023/04/06 07:05:19;;;;;;;27.52;16.33;;;;;;;;;;4998424;28;20080;-54
2023/04/06 07:07:44;;;;;;;27.77;14.90;;;;;;;;;;4997980;28;20614;-53
2023/04/06 07:10:10;;;;;;;24.67;14.68;;;;;;;;;;5011180;28;20429;-53
2023/04/06 07:12:37;;;;;;;25.73;15.20;;;;;;;;;;4997107;28;20040;-53
2023/04/06 07:15:02;;;;;;;24.73;14.65;;;;;;;;;;4997316;28;20449;-57
2023/04/06 07:17:28;;;;;;;28.30;14.65;;;;;;;;;;5004042;28;20046;-57
2023/04/06 07:19:53;;;;;;;24.17;14.57;;;;;;;;;;4995972;28;20045;-56
2023/04/06 07:22:19;;;;;;;34.40;19.30;;;;;;;;;;5003680;28;20061;-56
2023/04/06 07:24:44;;;;;;;32.00;18.83;;;;;;;;;;4995499;28;20087;-58
2023/04/06 07:27:10;;;;;;;29.95;16.35;;;;;;;;;;5013762;28;20117;-53
2023/04/06 07:29:35;;;;;;;28.13;15.98;;;;;;;;;;5012482;28;20124;-52
2023/04/06 07:32:01;;;;;;;26.08;15.15;;;;;;;;;;5004377;28;20069;-54
2023/04/06 07:34:26;;;;;;;26.15;14.82;;;;;;;;;;5011155;28;20041;-58
2023/04/06 07:36:53;;;;;;;24.45;12.95;;;;;;;;;;4983038;28;20430;-59
2023/04/06 07:39:19;;;;;;;23.33;12.25;;;;;;;;;;5002969;28;20029;-54
2023/04/06 07:41:45;;;;;;;23.73;12.43;;;;;;;;;;4997564;28;20124;-58
2023/04/06 07:44:10;;;;;;;21.25;11.18;;;;;;;;;;5012481;28;20394;-58
2023/04/06 07:46:36;;;;;;;18.83;10.80;;;;;;;;;;5003757;28;20084;-55
2023/04/06 07:49:02;;;;;;;20.40;11.75;;;;;;;;;;5002363;28;20036;-56
2023/04/06 07:51:30;;;;;;;18.90;11.40;;;;;;;;;;4997882;28;20059;-52
2023/04/06 07:53:56;;;;;;;17.50;9.52;;;;;;;;;;4998558;28;20087;-55
2023/04/06 07:56:21;;;;;;;18.27;10.55;;;;;;;;;;5012606;28;20029;-55
2023/04/06 07:58:47;;;;;;;22.08;11.68;;;;;;;;;;5011230;28;20175;-54
2023/04/06 08:01:12;;;;;;;19.60;10.90;;;;;;;;;;5014010;28;20477;-54
2023/04/06 08:03:38;;;;;;;20.30;11.23;;;;;;;;;;5010738;28;20089;-57
2023/04/06 08:06:04;;;;;;;20.60;11.15;;;;;;;;;;5010261;28;20088;-57
2023/04/06 08:08:29;;;;;;;21.05;10.82;;;;;;;;;;5012106;28;20029;-58
2023/04/06 08:10:54;;;;;;;19.92;10.80;;;;;;;;;;5002657;28;20077;-57
2023/04/06 08:13:20;;;;;;;21.52;10.85;;;;;;;;;;5012607;28;20040;-56
2023/04/06 08:15:45;;;;;;;19.00;11.13;;;;;;;;;;5011032;28;20093;-54
2023/04/06 08:18:11;;;;;;;19.02;10.82;;;;;;;;;;5012893;28;20416;-57
2023/04/06 08:20:36;;;;;;;19.20;10.57;;;;;;;;;;5013575;28;20038;-54
2023/04/06 08:23:02;;;;;;;21.30;11.82;;;;;;;;;;4998438;28;20397;-56
2023/04/06 08:25:27;;;;;;;18.73;9.85;;;;;;;;;;4994630;28;20503;-56
2023/04/06 08:27:52;;;;;;;19.75;10.82;;;;;;;;;;5010553;28;20038;-56
2023/04/06 08:30:19;;;;;;;21.48;11.27;;;;;;;;;;5014397;28;20381;-58
2023/04/06 08:32:44;;;;;;;21.25;11.38;;;;;;;;;;5008837;28;20041;-55
2023/04/06 08:35:10;;;;;;;22.40;10.15;;;;;;;;;;5001975;28;20103;-51
2023/04/06 08:37:35;;;;;;;20.75;10.73;;;;;;;;;;5011003;28;20078;-57
2023/04/06 08:40:01;;;;;;;18.63;10.23;;;;;;;;;;5011270;28;20285;-53
2023/04/06 08:42:29;;;;;;;16.33;10.25;;;;;;;;;;5010180;28;20149;-54
2023/04/06 08:44:55;;;;;;;16.75;10.88;;;;;;;;;;4991104;28;20033;-54
2023/04/06 08:47:20;;;;;;;18.35;10.13;;;;;;;;;;5004078;28;20041;-57
2023/04/06 08:49:46;;;;;;;18.52;10.60;;;;;;;;;;5012120;28;20813;-58
2023/04/06 08:52:12;;;;;;;18.75;10.43;;;;;;;;;;5013141;28;20033;-55
2023/04/06 08:54:38;;;;;;;18.30;10.60;;;;;;;;;;5013143;28;20037;-57
2023/04/06 08:57:04;;;;;;;16.27;10.27;;;;;;;;;;5010724;28;20018;-54
2023/04/06 08:59:31;;;;;;;26.13;13.37;;;;;;;;;;5012266;28;20132;-59
2023/04/06 09:01:56;;;;;;;18.13;11.85;;;;;;;;;;5009937;28;20042;-56
2023/04/06 09:04:21;;;;;;;20.40;10.68;;;;;;;;;;5011696;28;20092;-52
2023/04/06 09:06:47;;;;;;;24.30;11.25;;;;;;;;;;4998694;28;20080;-54
2023/04/06 09:09:12;;;;;;;21.02;10.52;;;;;;;;;;5011613;28;20625;-53
2023/04/06 09:12:01;;;;;;;20.13;11.57;;;;;;;;;;5009711;28;20378;-53
2023/04/06 09:14:34;;;;;;;19.05;11.05;;;;;;;;;;5009699;28;20037;-53
2023/04/06 09:16:59;;;;;;;18.52;11.23;;;;;;;;;;5013355;28;20045;-55
2023/04/06 09:19:25;;;;;;;20.75;10.93;;;;;;;;;;5014022;28;20030;-54
2023/04/06 09:22:00;;;;;;;24.02;11.15;;;;;;;;;;5016399;28;20044;-57
2023/04/06 09:24:26;;;;;;;19.52;10.80;;;;;;;;;;5015626;28;20481;-52
2023/04/06 09:26:51;;;;;;;18.17;10.10;;;;;;;;;;5012437;28;20030;-56
2023/04/06 09:29:24;;;;;;;17.52;10.25;;;;;;;;;;5015034;28;20028;-55
2023/04/06 09:31:49;;;;;;;17.20;9.80;;;;;;;;;;5015945;28;20042;-53
2023/04/06 09:34:22;;;;;;;19.27;10.55;;;;;;;;;;5015827;28;20040;-55
2023/04/06 09:36:48;;;;;;;17.65;9.63;;;;;;;;;;5016370;28;20091;-53
2023/04/06 09:39:13;;;;;;;17.00;10.05;;;;;;;;;;5000159;28;20397;-55
2023/04/06 09:41:39;;;;;;;15.10;9.48;;;;;;;;;;5014968;28;20029;-55
2023/04/06 09:44:08;;;;;;;16.30;9.13;;;;;;;;;;5014110;28;20033;-55
2023/04/06 09:46:35;;;;;;;15.25;8.63;;;;;;;;;;4998297;28;20914;-57
2023/04/06 09:49:03;;;;;;;15.68;9.15;;;;;;;;;;5014776;28;20192;-54
2023/04/06 09:51:58;;;;;;;16.63;9.88;;;;;;;;;;4997879;28;20052;-53
2023/04/06 09:54:27;;;;;;;16.20;9.05;;;;;;;;;;5002902;28;20081;-57
2023/04/06 09:56:57;;;;;;;12.13;7.57;;;;;;;;;;5015333;28;20034;-50
2023/04/06 09:59:28;;;;;;;14.27;8.80;;;;;;;;;;5012274;28;20033;-55
2023/04/06 10:01:55;;;;;;;14.18;8.77;;;;;;;;;;4997499;28;20524;-53
2023/04/06 10:04:36;;;;;;;16.83;8.40;;;;;;;;;;5015362;28;20038;-55
2023/04/06 10:07:02;;;;;;;13.63;7.40;;;;;;;;;;4997735;28;20052;-53
2023/04/06 10:09:35;;;;;;;12.95;6.95;;;;;;;;;;4991714;28;20030;-55
2023/04/06 10:12:01;;;;;;;11.75;6.78;;;;;;;;;;5001736;28;20112;-57
2023/04/06 10:14:27;;;;;;;12.37;7.30;;;;;;;;;;4991403;28;20025;-55
2023/04/06 10:16:52;;;;;;;15.80;8.32;;;;;;;;;;4984315;28;20043;-58
2023/04/06 10:19:21;;;;;;;13.80;8.48;;;;;;;;;;5017435;28;20037;-58
2023/04/06 10:21:50;;;;;;;12.75;8.40;;;;;;;;;;5003393;28;20536;-55
2023/04/06 10:24:17;;;;;;;19.98;9.60;;;;;;;;;;5015150;28;20040;-54
2023/04/06 10:26:42;;;;;;;14.03;9.07;;;;;;;;;;5011309;28;20116;-54
2023/04/06 10:29:07;;;;;;;16.73;8.65;;;;;;;;;;5003723;28;20067;-53
2023/04/06 10:31:39;;;;;;;15.18;8.52;;;;;;;;;;5021016;28;20492;-50
2023/04/06 10:34:04;;;;;;;15.38;8.90;;;;;;;;;;5005802;28;20306;-54
2023/04/06 10:36:33;;;;;;;14.30;9.10;;;;;;;;;;5014142;28;20659;-51
2023/04/06 10:39:00;;;;;;;14.73;9.10;;;;;;;;;;5016228;28;20025;-50
2023/04/06 10:41:32;;;;;;;15.27;9.10;;;;;;;;;;5004372;28;20037;-55
2023/04/06 10:43:58;;;;;;;14.50;9.52;;;;;;;;;;5013565;28;20033;-53
2023/04/06 10:46:27;;;;;;;15.23;9.05;;;;;;;;;;5003422;28;20410;-51
2023/04/06 10:48:52;;;;;;;19.80;9.80;;;;;;;;;;5014634;28;20040;-58
2023/04/06 10:51:18;;;;;;;13.50;9.15;;;;;;;;;;5011682;28;20034;-51
2023/04/06 10:53:46;;;;;;;14.60;10.15;;;;;;;;;;5012646;28;20040;-58
2023/04/06 10:56:12;;;;;;;16.27;9.90;;;;;;;;;;5013402;28;20086;-55
2023/04/06 10:58:38;;;;;;;16.17;9.88;;;;;;;;;;5011599;28;20026;-58
2023/04/06 11:01:03;;;;;;;13.63;9.40;;;;;;;;;;5012521;28;20045;-54
2023/04/06 11:03:29;;;;;;;16.00;9.68;;;;;;;;;;5011557;28;20036;-58
2023/04/06 11:05:54;;;;;;;16.23;9.23;;;;;;;;;;5006101;28;20052;-54
2023/04/06 11:08:25;;;;;;;13.40;8.90;;;;;;;;;;5009966;28;20025;-55
2023/04/06 11:10:51;;;;;;;14.75;8.52;;;;;;;;;;5012874;28;20033;-54
2023/04/06 11:13:17;;;;;;;14.90;9.75;;;;;;;;;;5013037;28;20640;-54
2023/04/06 11:15:42;;;;;;;15.13;8.93;;;;;;;;;;5013743;28;20112;-56
2023/04/06 11:18:07;;;;;;;13.02;8.18;;;;;;;;;;4998815;28;20033;-54
2023/04/06 11:20:33;;;;;;;19.75;8.98;;;;;;;;;;5002666;28;20521;-55
2023/04/06 11:22:59;;;;;;;15.52;9.13;;;;;;;;;;5004182;28;20045;-52
2023/04/06 11:25:26;;;;;;;13.95;8.98;;;;;;;;;;5011995;28;20057;-52
2023/04/06 11:27:51;;;;;;;17.05;9.00;;;;;;;;;;5014155;28;20104;-57
2023/04/06 11:30:17;;;;;;;13.82;8.65;;;;;;;;;;5001985;28;20137;-53
2023/04/06 11:32:43;;;;;;;12.57;8.02;;;;;;;;;;4995259;28;20121;-52
2023/04/06 11:35:18;;;;;;;12.75;8.00;;;;;;;;;;5010206;28;20541;-53
2023/04/06 11:37:44;;;;;;;12.60;7.70;;;;;;;;;;5012752;28;20033;-56
2023/04/06 11:40:09;;;;;;;13.05;7.85;;;;;;;;;;5010391;28;20075;-58
2023/04/06 11:42:35;;;;;;;12.48;8.10;;;;;;;;;;5013375;28;20029;-57
2023/04/06 11:45:00;;;;;;;11.23;7.30;;;;;;;;;;5001016;28;20129;-58
2023/04/06 11:47:33;;;;;;;15.48;8.05;;;;;;;;;;5017564;28;20034;-57
2023/04/06 11:50:11;;;;;;;14.13;8.63;;;;;;;;;;5016018;28;20033;-57
2023/04/06 11:52:38;;;;;;;12.98;8.48;;;;;;;;;;5016366;28;20026;-52
2023/04/06 11:55:10;;;;;;;11.70;8.18;;;;;;;;;;5015946;28;20075;-51
2023/04/06 11:57:36;;;;;;;11.20;8.15;;;;;;;;;;4997618;28;20457;-50
2023/04/06 12:00:01;;;;;;;12.70;8.07;;;;;;;;;;5014712;28;20765;-59
2023/04/06 12:02:26;;;;;;;10.33;8.20;;;;;;;;;;4997638;28;20099;-54
2023/04/06 12:04:52;;;;;;;12.50;7.70;;;;;;;;;;5014354;28;20045;-54
2023/04/06 12:07:17;;;;;;;10.87;7.70;;;;;;;;;;5016854;28;20029;-56
2023/04/06 12:09:43;;;;;;;14.80;7.73;;;;;;;;;;5013337;28;20227;-55
2023/04/06 12:12:08;;;;;;;10.40;7.67;;;;;;;;;;5000797;28;20021;-53
2023/04/06 12:14:33;;;;;;;14.13;8.30;;;;;;;;;;5017580;28;20734;-56
2023/04/06 12:16:59;;;;;;;10.57;7.33;;;;;;;;;;5016591;28;20033;-55
2023/04/06 12:19:25;;;;;;;14.03;7.77;;;;;;;;;;5011804;28;20044;-50
2023/04/06 12:21:51;;;;;;;11.10;7.22;;;;;;;;;;4983614;28;20038;-56
2023/04/06 12:24:17;;;;;;;10.45;6.65;;;;;;;;;;5015546;28;20111;-56
2023/04/06 12:26:42;;;;;;;11.33;6.20;;;;;;;;;;5013571;28;20069;-53
2023/04/06 12:29:08;;;;;;;7.67;6.13;;;;;;;;;;5012487;28;20104;-54
2023/04/06 12:31:38;;;;;;;8.10;5.83;;;;;;;;;;5013830;28;20049;-55
2023/04/06 12:34:03;;;;;;;9.30;6.47;;;;;;;;;;5017521;28;20513;-54
2023/04/06 12:36:29;;;;;;;8.73;6.47;;;;;;;;;;5015713;28;20033;-55
2023/04/06 12:38:55;;;;;;;9.50;6.70;;;;;;;;;;5017592;28;20430;-53
2023/04/06 12:41:20;;;;;;;10.50;7.30;;;;;;;;;;5014546;28;20108;-52
2023/04/06 12:43:46;;;;;;;12.50;6.43;;;;;;;;;;5010683;28;20266;-55
2023/04/06 12:46:11;;;;;;;8.53;6.23;;;;;;;;;;5007564;28;20065;-56
2023/04/06 12:48:37;;;;;;;10.43;6.77;;;;;;;;;;5011893;28;20243;-56
2023/04/06 12:51:06;;;;;;;10.30;6.93;;;;;;;;;;4985784;28;20034;-54
2023/04/06 12:53:31;;;;;;;9.25;6.55;;;;;;;;;;5015216;28;20042;-53
2023/04/06 12:55:57;;;;;;;9.00;6.57;;;;;;;;;;5004521;28;20048;-54
2023/04/06 12:58:23;;;;;;;8.47;6.73;;;;;;;;;;5007634;28;20120;-55
2023/04/06 13:00:50;;;;;;;11.57;6.87;;;;;;;;;;5003726;28;20036;-54
2023/04/06 13:03:15;;;;;;;9.45;7.03;;;;;;;;;;5021668;28;20030;-55
2023/04/06 13:05:47;;;;;;;11.57;6.70;;;;;;;;;;5020025;28;20033;-52
2023/04/06 13:08:13;;;;;;;10.05;6.95;;;;;;;;;;5017003;28;20088;-56
2023/04/06 13:10:43;;;;;;;13.98;7.05;;;;;;;;;;4999469;28;20429;-52
2023/04/06 13:13:08;;;;;;;10.07;7.05;;;;;;;;;;5014899;28;20048;-56
2023/04/06 13:15:36;;;;;;;9.60;6.40;;;;;;;;;;5016314;28;20060;-53
2023/04/06 13:18:01;;;;;;;12.10;6.88;;;;;;;;;;5018118;28;20064;-56
2023/04/06 13:20:27;;;;;;;11.17;7.13;;;;;;;;;;5016135;28;20033;-55
2023/04/06 13:22:53;;;;;;;11.48;7.22;;;;;;;;;;5017861;28;20482;-52
2023/04/06 13:25:18;;;;;;;10.33;6.80;;;;;;;;;;5004774;28;20045;-52
2023/04/06 13:27:46;;;;;;;9.97;7.10;;;;;;;;;;5016348;28;20045;-50
2023/04/06 13:30:11;;;;;;;10.00;6.72;;;;;;;;;;5021923;28;20459;-52
2023/04/06 13:32:37;;;;;;;9.30;6.37;;;;;;;;;;5021764;28;20516;-50
2023/04/06 13:35:03;;;;;;;10.13;6.03;;;;;;;;;;5018511;28;20279;-52
2023/04/06 13:37:29;;;;;;;8.05;5.85;;;;;;;;;;5019634;28;20029;-51
2023/04/06 13:39:54;;;;;;;10.00;6.60;;;;;;;;;;5017364;28;20091;-52
2023/04/06 13:42:20;;;;;;;10.80;6.40;;;;;;;;;;5008805;28;20034;-53
2023/04/06 13:44:46;;;;;;;9.20;6.33;;;;;;;;;;5004939;28;20057;-52
2023/04/06 13:47:12;;;;;;;8.18;5.80;;;;;;;;;;5017710;28;20413;-54
2023/04/06 13:49:37;;;;;;;9.53;6.13;;;;;;;;;;5009290;28;20039;-56
2023/04/06 13:52:03;;;;;;;9.43;5.87;;;;;;;;;;5020696;28;20079;-54
2023/04/06 13:54:28;;;;;;;8.10;5.53;;;;;;;;;;5012280;28;20137;-53
2023/04/06 13:56:53;;;;;;;9.23;6.50;;;;;;;;;;5014533;28;20038;-53
2023/04/06 13:59:19;;;;;;;9.23;6.13;;;;;;;;;;5017057;28;20112;-53
2023/04/06 14:01:45;;;;;;;;;;;;;;;;;;5017209;28;20077;-53
2023/04/06 14:04:11;;;;;;;8.77;6.10;;;;;;;;;;5017490;28;19964;-55
2023/04/06 14:06:36;;;;;;;8.97;6.20;;;;;;;;;;5008266;28;20045;-54
2023/04/06 14:09:02;;;;;;;8.97;6.43;;;;;;;;;;5012627;28;20026;-55
2023/04/06 14:11:27;;;;;;;9.40;6.53;;;;;;;;;;5013646;28;20717;-53
2023/04/06 14:13:52;;;;;;;7.80;5.53;;;;;;;;;;5019101;28;20079;-50
2023/04/06 14:16:19;;;;;;;11.63;6.77;;;;;;;;;;5004471;28;20033;-50
2023/04/06 14:18:45;;;;;;;11.68;5.88;;;;;;;;;;5011459;28;20096;-55
2023/04/06 14:21:10;;;;;;;14.57;6.43;;;;;;;;;;5016206;28;20053;-53
2023/04/06 14:23:36;;;;;;;9.70;6.30;;;;;;;;;;5013545;28;20113;-56
2023/04/06 14:26:03;;;;;;;9.20;6.05;;;;;;;;;;5016078;28;20116;-53